Time;durP1;ratioP1;P1;durP2;ratioP2;P2;SDS_P1;SDS_P2;PMS_P1;PMS_P2;Temp;Humidity;BMP_temperature;BMP_pressure;BME280_temperature;BME280_humidity;BME280_pressure;Samples;Min_cycle;Max_cycle;Signal;HPM_P1;HPM_P2
2022/10/16 00:01:58;;;;;;;7.57;4.20;;;;;;;;;;4982494;28;20037;-78
2022/10/16 00:04:24;;;;;;;5.45;4.22;;;;;;;;;;5006485;28;20093;-78
2022/10/16 00:06:49;;;;;;;5.90;4.20;;;;;;;;;;5007497;28;20025;-77
2022/10/16 00:09:15;;;;;;;6.35;4.32;;;;;;;;;;5007683;28;20064;-79
2022/10/16 00:11:40;;;;;;;9.43;4.13;;;;;;;;;;4988385;28;20023;-78
2022/10/16 00:14:12;;;;;;;5.38;4.20;;;;;;;;;;5007557;28;20026;-77
2022/10/16 00:16:38;;;;;;;6.50;4.15;;;;;;;;;;5007142;28;20018;-77
2022/10/16 00:19:04;;;;;;;8.73;4.65;;;;;;;;;;4988951;28;20022;-77
2022/10/16 00:21:30;;;;;;;5.35;4.22;;;;;;;;;;4988212;28;20194;-77
2022/10/16 00:23:59;;;;;;;6.47;3.83;;;;;;;;;;5001367;28;20222;-77
2022/10/16 00:26:25;;;;;;;9.20;4.32;;;;;;;;;;5004578;28;20061;-76
2022/10/16 00:28:51;;;;;;;6.93;4.43;;;;;;;;;;4998038;28;20030;-77
2022/10/16 00:31:19;;;;;;;7.82;4.60;;;;;;;;;;4986304;28;20034;-76
2022/10/16 00:33:45;;;;;;;8.18;4.45;;;;;;;;;;5006082;28;20042;-77
2022/10/16 00:36:14;;;;;;;8.32;4.47;;;;;;;;;;5006386;28;20046;-77
2022/10/16 00:38:40;;;;;;;9.65;4.47;;;;;;;;;;4985921;28;20035;-77
2022/10/16 00:41:07;;;;;;;10.30;4.43;;;;;;;;;;5005040;28;20426;-77
2022/10/16 00:43:33;;;;;;;8.98;4.20;;;;;;;;;;5001984;28;20022;-77
2022/10/16 00:46:00;;;;;;;7.57;4.55;;;;;;;;;;5006692;28;20056;-77
2022/10/16 00:48:25;;;;;;;7.95;4.70;;;;;;;;;;5006098;28;20028;-76
2022/10/16 00:50:52;;;;;;;8.38;4.20;;;;;;;;;;4987239;28;20057;-77
2022/10/16 00:53:17;;;;;;;7.88;4.13;;;;;;;;;;4987584;28;20025;-77
2022/10/16 00:55:43;;;;;;;6.90;4.43;;;;;;;;;;5004862;28;20018;-77
2022/10/16 00:58:09;;;;;;;9.75;4.72;;;;;;;;;;5003272;28;20018;-77
2022/10/16 01:00:34;;;;;;;8.30;5.00;;;;;;;;;;5002312;28;20114;-77
2022/10/16 01:03:02;;;;;;;7.28;4.47;;;;;;;;;;4987472;28;20033;-77
2022/10/16 01:05:39;;;;;;;6.97;4.65;;;;;;;;;;4989307;28;20030;-78
2022/10/16 01:08:18;;;;;;;8.43;4.15;;;;;;;;;;5004439;28;20057;-77
2022/10/16 01:10:50;;;;;;;7.57;4.97;;;;;;;;;;4988841;28;20026;-77
2022/10/16 01:13:22;;;;;;;6.95;4.63;;;;;;;;;;5003849;28;20026;-77
2022/10/16 01:15:58;;;;;;;8.68;4.35;;;;;;;;;;5002568;28;20034;-77
2022/10/16 01:18:37;;;;;;;8.20;4.32;;;;;;;;;;5005976;28;20053;-77
2022/10/16 01:21:06;;;;;;;8.35;4.63;;;;;;;;;;5003902;28;20023;-77
2022/10/16 01:24:02;;;;;;;8.20;4.55;;;;;;;;;;5004538;28;20034;-77
2022/10/16 01:27:04;;;;;;;7.22;3.90;;;;;;;;;;5005380;28;20026;-78
2022/10/16 01:29:56;;;;;;;6.70;4.10;;;;;;;;;;4982326;28;20101;-77
2022/10/16 01:32:43;;;;;;;7.07;4.15;;;;;;;;;;4984678;28;20080;-77
2022/10/16 01:35:25;;;;;;;8.15;4.65;;;;;;;;;;5001770;28;20056;-77
2022/10/16 01:38:17;;;;;;;7.90;4.45;;;;;;;;;;5001842;28;20049;-77
2022/10/16 01:40:47;;;;;;;6.55;4.22;;;;;;;;;;5004367;28;20042;-77
2022/10/16 01:43:16;;;;;;;9.32;4.40;;;;;;;;;;4984923;28;20199;-77
2022/10/16 01:45:44;;;;;;;8.63;4.40;;;;;;;;;;4985283;28;20030;-77
2022/10/16 01:48:16;;;;;;;6.50;4.38;;;;;;;;;;5004213;28;20073;-77
2022/10/16 01:50:44;;;;;;;9.23;4.75;;;;;;;;;;5005397;28;20049;-77
2022/10/16 01:53:13;;;;;;;6.72;4.13;;;;;;;;;;5005013;28;20030;-77
2022/10/16 01:55:44;;;;;;;8.90;4.97;;;;;;;;;;5003206;28;20033;-77
2022/10/16 01:58:12;;;;;;;11.23;4.72;;;;;;;;;;5005127;28;20266;-77
2022/10/16 02:00:41;;;;;;;10.38;4.78;;;;;;;;;;5003158;28;20030;-77
2022/10/16 02:03:09;;;;;;;8.57;5.00;;;;;;;;;;5004148;28;20030;-77
2022/10/16 02:05:53;;;;;;;12.15;5.40;;;;;;;;;;4988136;28;20058;-77
2022/10/16 02:08:19;;;;;;;9.45;5.18;;;;;;;;;;5005135;28;20098;-77
2022/10/16 02:10:45;;;;;;;11.18;5.00;;;;;;;;;;5005436;28;20025;-77
2022/10/16 02:13:52;;;;;;;9.20;5.13;;;;;;;;;;4985254;28;20031;-76
2022/10/16 02:16:18;;;;;;;10.15;5.18;;;;;;;;;;4926584;29;20032;-77
2022/10/16 02:18:43;;;;;;;9.23;5.00;;;;;;;;;;4988264;28;20041;-77
2022/10/16 02:21:09;;;;;;;12.43;5.60;;;;;;;;;;4999353;28;20031;-77
2022/10/16 02:23:57;;;;;;;7.63;5.15;;;;;;;;;;5004782;28;20089;-77
2022/10/16 02:26:30;;;;;;;9.18;5.28;;;;;;;;;;5002852;28;20031;-77
2022/10/16 02:29:01;;;;;;;12.35;5.75;;;;;;;;;;5003304;28;20033;-77
2022/10/16 02:31:30;;;;;;;9.95;5.72;;;;;;;;;;5004441;28;20068;-77
2022/10/16 02:33:58;;;;;;;10.40;5.90;;;;;;;;;;5004767;28;20054;-77
2022/10/16 02:36:24;;;;;;;9.13;5.90;;;;;;;;;;5001176;28;20043;-77
2022/10/16 02:38:50;;;;;;;12.60;5.90;;;;;;;;;;5004265;28;20026;-77
2022/10/16 02:41:16;;;;;;;9.43;5.68;;;;;;;;;;5004544;28;20089;-78
2022/10/16 02:43:41;;;;;;;10.63;5.65;;;;;;;;;;5005156;28;20030;-77
2022/10/16 02:46:07;;;;;;;10.73;5.90;;;;;;;;;;5004916;28;20018;-78
2022/10/16 02:48:33;;;;;;;10.60;5.60;;;;;;;;;;5004147;28;20027;-77
2022/10/16 02:50:58;;;;;;;9.57;5.53;;;;;;;;;;4987214;28;20023;-77
2022/10/16 02:53:23;;;;;;;7.85;5.53;;;;;;;;;;4987355;28;20034;-78
2022/10/16 02:55:49;;;;;;;10.20;5.93;;;;;;;;;;5004177;28;20026;-77
2022/10/16 02:58:14;;;;;;;15.27;6.05;;;;;;;;;;5005247;28;20022;-77
2022/10/16 03:00:40;;;;;;;11.43;6.03;;;;;;;;;;5004693;28;20026;-77
2022/10/16 03:03:05;;;;;;;11.15;6.15;;;;;;;;;;4987403;28;20026;-77
2022/10/16 03:05:30;;;;;;;15.30;6.10;;;;;;;;;;5004517;28;20225;-77
2022/10/16 03:07:56;;;;;;;11.40;5.78;;;;;;;;;;4986030;28;20038;-76
2022/10/16 03:10:21;;;;;;;9.55;5.63;;;;;;;;;;5004613;28;20060;-77
2022/10/16 03:12:46;;;;;;;12.30;5.80;;;;;;;;;;5002325;28;20026;-77
2022/10/16 03:15:12;;;;;;;10.80;6.28;;;;;;;;;;5001009;28;20037;-78
2022/10/16 03:17:37;;;;;;;11.52;5.70;;;;;;;;;;5000501;28;20081;-76
2022/10/16 03:20:03;;;;;;;12.20;5.97;;;;;;;;;;4998908;28;20097;-76
2022/10/16 03:22:28;;;;;;;12.10;6.07;;;;;;;;;;4981340;28;20031;-77
2022/10/16 03:24:54;;;;;;;10.98;6.07;;;;;;;;;;5004031;28;20022;-77
2022/10/16 03:27:19;;;;;;;10.70;5.93;;;;;;;;;;5004471;28;20019;-77
2022/10/16 03:29:45;;;;;;;9.20;5.70;;;;;;;;;;5004369;28;20085;-77
2022/10/16 03:32:10;;;;;;;9.88;6.18;;;;;;;;;;5004228;28;20018;-77
2022/10/16 03:34:35;;;;;;;14.27;6.50;;;;;;;;;;5004251;28;20050;-77
2022/10/16 03:37:01;;;;;;;9.45;6.07;;;;;;;;;;5004268;28;20032;-77
2022/10/16 03:39:27;;;;;;;14.23;6.30;;;;;;;;;;5004468;28;20025;-77
2022/10/16 03:41:52;;;;;;;9.57;6.07;;;;;;;;;;4984626;28;20022;-77
2022/10/16 03:44:17;;;;;;;10.15;6.30;;;;;;;;;;5003874;28;20087;-77
2022/10/16 03:46:43;;;;;;;11.95;6.55;;;;;;;;;;5004096;28;20018;-78
2022/10/16 03:49:08;;;;;;;12.00;6.55;;;;;;;;;;5003959;28;20056;-77
2022/10/16 03:51:33;;;;;;;9.98;6.68;;;;;;;;;;4986323;28;20022;-77
2022/10/16 03:53:59;;;;;;;13.45;6.78;;;;;;;;;;4982975;28;20034;-77
2022/10/16 03:56:24;;;;;;;14.57;6.88;;;;;;;;;;4985438;28;20022;-76
2022/10/16 03:58:50;;;;;;;12.73;6.72;;;;;;;;;;4997916;28;20018;-77
2022/10/16 04:01:15;;;;;;;12.02;6.40;;;;;;;;;;4999780;28;20031;-77
2022/10/16 04:03:40;;;;;;;12.32;6.70;;;;;;;;;;5003430;28;20045;-77
2022/10/16 04:06:06;;;;;;;9.75;6.32;;;;;;;;;;5005289;28;20018;-77
2022/10/16 04:08:34;;;;;;;12.20;6.38;;;;;;;;;;5005458;28;20026;-77
2022/10/16 04:11:00;;;;;;;10.48;6.32;;;;;;;;;;5003607;28;20093;-77
2022/10/16 04:13:26;;;;;;;10.93;6.43;;;;;;;;;;5006040;28;20025;-77
2022/10/16 04:15:51;;;;;;;12.15;6.40;;;;;;;;;;5005755;28;20019;-77
2022/10/16 04:18:16;;;;;;;13.18;6.90;;;;;;;;;;4985111;28;20072;-77
2022/10/16 04:20:42;;;;;;;12.40;6.80;;;;;;;;;;5005723;28;20218;-77
2022/10/16 04:23:07;;;;;;;13.10;6.95;;;;;;;;;;5005373;28;20065;-77
2022/10/16 04:25:33;;;;;;;10.85;6.75;;;;;;;;;;5004656;28;20026;-77
2022/10/16 04:27:58;;;;;;;11.27;6.40;;;;;;;;;;4999564;28;20077;-77
2022/10/16 04:30:24;;;;;;;13.80;6.60;;;;;;;;;;4988177;28;20092;-78
2022/10/16 04:32:50;;;;;;;12.23;6.57;;;;;;;;;;5005674;28;20097;-77
2022/10/16 04:35:17;;;;;;;13.35;6.43;;;;;;;;;;5002441;28;20050;-77
2022/10/16 04:37:42;;;;;;;10.32;6.35;;;;;;;;;;4985314;28;20107;-78
2022/10/16 04:40:08;;;;;;;9.80;6.32;;;;;;;;;;5007237;28;20022;-77
2022/10/16 04:42:33;;;;;;;11.75;6.22;;;;;;;;;;4985965;28;20333;-78
2022/10/16 04:44:58;;;;;;;11.48;6.38;;;;;;;;;;5007198;28;20098;-77
2022/10/16 04:47:24;;;;;;;10.35;6.25;;;;;;;;;;5005233;28;20126;-78
2022/10/16 04:49:49;;;;;;;12.35;6.43;;;;;;;;;;4989234;28;20018;-77
2022/10/16 04:52:15;;;;;;;12.70;6.57;;;;;;;;;;5005478;28;20021;-78
2022/10/16 04:54:40;;;;;;;15.50;6.53;;;;;;;;;;4985141;28;20061;-77
2022/10/16 04:57:06;;;;;;;13.13;6.43;;;;;;;;;;5006824;28;20026;-77
2022/10/16 04:59:31;;;;;;;17.45;7.07;;;;;;;;;;5006098;28;20026;-77
2022/10/16 05:01:56;;;;;;;15.40;6.70;;;;;;;;;;5006760;28;20094;-77
2022/10/16 05:04:22;;;;;;;11.75;6.13;;;;;;;;;;5006764;28;20027;-77
2022/10/16 05:06:47;;;;;;;13.35;6.55;;;;;;;;;;5006777;28;20029;-78
2022/10/16 05:09:13;;;;;;;13.25;6.80;;;;;;;;;;4989512;28;20022;-77
2022/10/16 05:11:38;;;;;;;13.20;7.07;;;;;;;;;;4988217;28;20022;-77
2022/10/16 05:14:04;;;;;;;13.77;6.63;;;;;;;;;;5006457;28;20370;-78
2022/10/16 05:16:30;;;;;;;13.57;6.18;;;;;;;;;;4989096;28;20126;-78
2022/10/16 05:18:56;;;;;;;13.52;6.57;;;;;;;;;;4989104;28;20310;-77
2022/10/16 05:21:22;;;;;;;12.32;5.97;;;;;;;;;;5006676;28;20054;-77
2022/10/16 05:23:47;;;;;;;14.02;6.82;;;;;;;;;;5006321;28;20033;-78
2022/10/16 05:26:13;;;;;;;11.80;6.25;;;;;;;;;;5006392;28;20022;-78
2022/10/16 05:28:38;;;;;;;10.98;6.20;;;;;;;;;;5006456;28;20050;-78
2022/10/16 05:31:05;;;;;;;12.20;6.40;;;;;;;;;;5006355;28;20021;-77
2022/10/16 05:33:31;;;;;;;10.38;5.90;;;;;;;;;;5006173;28;20133;-78
2022/10/16 05:35:56;;;;;;;11.02;6.47;;;;;;;;;;5006144;28;20046;-77
2022/10/16 05:38:22;;;;;;;9.82;6.05;;;;;;;;;;5006015;28;20050;-78
2022/10/16 05:40:52;;;;;;;14.95;6.18;;;;;;;;;;5005031;28;20038;-78
2022/10/16 05:43:17;;;;;;;12.30;7.07;;;;;;;;;;4988187;28;20314;-77
2022/10/16 05:45:42;;;;;;;14.23;6.72;;;;;;;;;;4988059;28;20109;-78
2022/10/16 05:48:08;;;;;;;11.13;6.70;;;;;;;;;;4988344;28;20072;-77
2022/10/16 05:50:33;;;;;;;13.68;6.43;;;;;;;;;;5004264;28;20306;-77
2022/10/16 05:52:58;;;;;;;12.73;7.15;;;;;;;;;;5000432;28;20033;-77
2022/10/16 05:55:24;;;;;;;13.50;6.80;;;;;;;;;;5003083;28;20038;-77
2022/10/16 05:57:49;;;;;;;13.27;6.60;;;;;;;;;;5004405;28;20030;-77
2022/10/16 06:00:15;;;;;;;10.95;6.50;;;;;;;;;;5005835;28;20045;-78
2022/10/16 06:02:40;;;;;;;12.68;7.03;;;;;;;;;;4988338;28;20030;-77
2022/10/16 06:05:06;;;;;;;16.00;7.15;;;;;;;;;;5005118;28;20033;-77
2022/10/16 06:07:35;;;;;;;14.65;6.72;;;;;;;;;;4987062;28;20030;-78
2022/10/16 06:10:01;;;;;;;13.80;6.60;;;;;;;;;;4988617;28;20033;-77
2022/10/16 06:12:26;;;;;;;15.20;6.82;;;;;;;;;;5001679;28;20031;-78
2022/10/16 06:14:52;;;;;;;11.90;6.93;;;;;;;;;;5005247;28;20037;-76
2022/10/16 06:17:17;;;;;;;15.20;7.40;;;;;;;;;;4983438;28;20142;-78
2022/10/16 06:19:43;;;;;;;13.60;7.38;;;;;;;;;;5002118;28;20029;-77
2022/10/16 06:22:08;;;;;;;11.43;6.40;;;;;;;;;;4987729;28;20329;-77
2022/10/16 06:24:34;;;;;;;12.70;6.72;;;;;;;;;;5004744;28;20014;-77
2022/10/16 06:27:00;;;;;;;16.17;7.22;;;;;;;;;;5005148;28;20330;-78
2022/10/16 06:29:25;;;;;;;15.80;7.13;;;;;;;;;;5001166;28;20030;-77
2022/10/16 06:31:51;;;;;;;12.48;7.15;;;;;;;;;;4984044;28;20093;-77
2022/10/16 06:34:16;;;;;;;14.52;7.47;;;;;;;;;;5004489;28;20023;-77
2022/10/16 06:36:43;;;;;;;15.85;7.43;;;;;;;;;;5002921;28;20022;-78
2022/10/16 06:39:08;;;;;;;13.63;7.10;;;;;;;;;;5002244;28;20037;-77
2022/10/16 06:41:34;;;;;;;17.02;7.60;;;;;;;;;;5004375;28;20027;-77
2022/10/16 06:43:59;;;;;;;13.90;6.93;;;;;;;;;;5004187;28;20034;-77
2022/10/16 06:46:26;;;;;;;15.55;7.72;;;;;;;;;;4985513;28;20376;-77
2022/10/16 06:48:55;;;;;;;12.80;6.97;;;;;;;;;;5002779;28;20065;-77
2022/10/16 06:51:22;;;;;;;13.00;7.03;;;;;;;;;;4986636;28;20033;-78
2022/10/16 06:53:50;;;;;;;13.38;6.72;;;;;;;;;;5003798;28;20080;-77
2022/10/16 06:56:19;;;;;;;14.75;6.93;;;;;;;;;;5002434;28;20306;-77
2022/10/16 06:58:45;;;;;;;13.60;7.20;;;;;;;;;;5004254;28;20018;-78
2022/10/16 07:01:12;;;;;;;14.73;6.60;;;;;;;;;;5003798;28;20026;-77
2022/10/16 07:03:39;;;;;;;13.02;6.97;;;;;;;;;;4986695;28;20210;-76
2022/10/16 07:06:06;;;;;;;12.25;7.13;;;;;;;;;;4999327;28;20023;-78
2022/10/16 07:08:33;;;;;;;12.10;7.10;;;;;;;;;;4983577;28;20030;-77
2022/10/16 07:11:04;;;;;;;14.73;6.90;;;;;;;;;;4986132;28;20073;-78
2022/10/16 07:13:33;;;;;;;13.65;6.93;;;;;;;;;;4999733;28;20093;-78
2022/10/16 07:16:04;;;;;;;13.57;7.15;;;;;;;;;;5000172;28;20398;-77
2022/10/16 07:18:32;;;;;;;12.95;7.00;;;;;;;;;;5001728;28;20402;-78
2022/10/16 07:21:04;;;;;;;14.27;6.88;;;;;;;;;;5002375;28;20026;-77
2022/10/16 07:23:29;;;;;;;10.52;6.68;;;;;;;;;;5003734;28;20022;-77
2022/10/16 07:25:55;;;;;;;10.68;6.30;;;;;;;;;;5003459;28;20053;-77
2022/10/16 07:28:20;;;;;;;14.50;6.63;;;;;;;;;;5000148;28;20474;-77
2022/10/16 07:30:46;;;;;;;10.48;6.68;;;;;;;;;;5003592;28;20022;-77
2022/10/16 07:33:11;;;;;;;12.48;6.57;;;;;;;;;;4986301;28;20191;-78
2022/10/16 07:35:36;;;;;;;11.27;6.22;;;;;;;;;;4985640;28;20132;-78
2022/10/16 07:38:02;;;;;;;13.13;6.53;;;;;;;;;;4990218;28;20037;-77
2022/10/16 07:40:27;;;;;;;10.77;5.80;;;;;;;;;;5007188;28;20050;-77
2022/10/16 07:42:53;;;;;;;9.68;6.05;;;;;;;;;;5007610;28;20114;-78
2022/10/16 07:45:18;;;;;;;11.73;6.15;;;;;;;;;;5007010;28;20041;-78
2022/10/16 07:47:43;;;;;;;11.27;5.90;;;;;;;;;;5001616;28;20022;-77
2022/10/16 07:50:09;;;;;;;11.50;6.38;;;;;;;;;;5004795;28;20089;-77
2022/10/16 07:52:34;;;;;;;10.93;6.20;;;;;;;;;;5006942;28;20094;-76
2022/10/16 07:54:59;;;;;;;9.98;5.97;;;;;;;;;;5007196;28;20030;-78
2022/10/16 07:57:25;;;;;;;12.60;5.60;;;;;;;;;;5005934;28;20034;-78
2022/10/16 07:59:50;;;;;;;8.10;5.55;;;;;;;;;;5007827;28;20086;-76
2022/10/16 08:02:16;;;;;;;9.70;5.65;;;;;;;;;;4990777;28;20265;-76
2022/10/16 08:04:41;;;;;;;11.93;5.70;;;;;;;;;;5007380;28;20253;-78
2022/10/16 08:07:08;;;;;;;12.40;5.82;;;;;;;;;;5006154;28;20014;-77
2022/10/16 08:09:33;;;;;;;13.55;5.97;;;;;;;;;;4990279;28;20069;-84
2022/10/16 08:11:59;;;;;;;14.30;6.70;;;;;;;;;;5007581;28;20014;-83
2022/10/16 08:14:24;;;;;;;12.98;6.35;;;;;;;;;;5007478;28;20096;-82
2022/10/16 08:16:49;;;;;;;10.73;5.80;;;;;;;;;;5007071;28;20034;-82
2022/10/16 08:19:15;;;;;;;9.20;6.28;;;;;;;;;;5006645;28;20037;-79
2022/10/16 08:21:41;;;;;;;12.73;6.03;;;;;;;;;;5006033;28;20083;-80
2022/10/16 08:24:06;;;;;;;11.10;6.28;;;;;;;;;;5005269;28;20080;-76
2022/10/16 08:26:31;;;;;;;11.90;6.82;;;;;;;;;;5004521;28;20018;-77
2022/10/16 08:28:57;;;;;;;12.50;6.80;;;;;;;;;;5001133;28;20073;-78
2022/10/16 08:31:23;;;;;;;13.35;6.63;;;;;;;;;;5004130;28;20045;-84
2022/10/16 08:33:51;;;;;;;10.52;6.35;;;;;;;;;;5005658;28;20046;-81
2022/10/16 08:36:16;;;;;;;11.32;6.40;;;;;;;;;;5003101;28;20046;-78
2022/10/16 08:38:41;;;;;;;13.15;6.70;;;;;;;;;;4989494;28;20109;-79
2022/10/16 08:41:38;;;;;;;14.10;6.45;;;;;;;;;;4999417;28;20026;-80
2022/10/16 08:44:15;;;;;;;15.25;7.10;;;;;;;;;;5000540;28;20045;-80
2022/10/16 08:46:56;;;;;;;11.27;6.43;;;;;;;;;;4994932;28;20088;-80
2022/10/16 08:49:24;;;;;;;12.93;6.07;;;;;;;;;;4998271;28;20050;-77
2022/10/16 08:51:50;;;;;;;14.48;6.70;;;;;;;;;;4999727;28;20250;-75
2022/10/16 08:54:40;;;;;;;10.68;6.20;;;;;;;;;;4996598;28;20033;-75
2022/10/16 08:57:13;;;;;;;13.30;6.30;;;;;;;;;;4995379;28;20030;-76
2022/10/16 08:59:39;;;;;;;11.15;5.85;;;;;;;;;;5005407;28;20222;-77
2022/10/16 09:02:24;;;;;;;13.18;5.97;;;;;;;;;;4999796;28;20030;-80
2022/10/16 09:05:34;;;;;;;10.23;5.70;;;;;;;;;;5001116;28;20102;-80
2022/10/16 09:08:30;;;;;;;11.93;5.80;;;;;;;;;;4996851;28;20026;-76
2022/10/16 09:11:08;;;;;;;17.92;5.80;;;;;;;;;;4995947;28;20076;-76
2022/10/16 09:13:47;;;;;;;11.30;5.80;;;;;;;;;;4996147;28;20026;-76
2022/10/16 09:16:18;;;;;;;17.27;5.38;;;;;;;;;;4995759;28;20030;-75
2022/10/16 09:19:15;;;;;;;11.10;5.53;;;;;;;;;;4995608;28;20088;-75
2022/10/16 09:21:43;;;;;;;11.38;5.28;;;;;;;;;;4995742;28;20034;-75
2022/10/16 09:24:15;;;;;;;9.93;4.82;;;;;;;;;;4996210;28;20046;-77
2022/10/16 09:26:41;;;;;;;14.23;4.88;;;;;;;;;;4995634;28;20105;-77
2022/10/16 09:29:08;;;;;;;9.88;4.45;;;;;;;;;;4995523;28;20058;-78
2022/10/16 09:31:37;;;;;;;9.13;4.38;;;;;;;;;;4977898;28;20026;-76
2022/10/16 09:34:05;;;;;;;11.50;4.50;;;;;;;;;;4977849;28;20122;-77
2022/10/16 09:36:40;;;;;;;12.07;4.40;;;;;;;;;;4995294;28;20490;-78
2022/10/16 09:39:09;;;;;;;11.10;4.30;;;;;;;;;;4995330;28;20027;-77
2022/10/16 09:41:37;;;;;;;16.15;5.05;;;;;;;;;;4995236;28;20027;-77
2022/10/16 09:44:04;;;;;;;8.70;4.20;;;;;;;;;;4977907;28;20054;-78
2022/10/16 09:46:30;;;;;;;8.38;3.92;;;;;;;;;;4995148;28;20465;-77
2022/10/16 09:49:18;;;;;;;6.45;3.83;;;;;;;;;;4995132;28;20066;-76
2022/10/16 09:51:43;;;;;;;8.90;3.95;;;;;;;;;;4995226;28;20053;-77
2022/10/16 09:54:08;;;;;;;10.20;4.15;;;;;;;;;;4994806;28;20432;-77
2022/10/16 09:56:36;;;;;;;10.75;4.10;;;;;;;;;;4994863;28;20088;-77
2022/10/16 09:59:18;;;;;;;10.68;4.18;;;;;;;;;;4977114;28;20033;-76
2022/10/16 10:01:52;;;;;;;9.73;3.72;;;;;;;;;;4994903;28;20092;-77
2022/10/16 10:04:20;;;;;;;10.77;4.05;;;;;;;;;;4994713;28;20034;-78
2022/10/16 10:06:56;;;;;;;8.50;4.00;;;;;;;;;;4994909;28;20039;-78
2022/10/16 10:09:30;;;;;;;8.15;4.15;;;;;;;;;;4994741;28;20046;-76
2022/10/16 10:11:56;;;;;;;10.05;4.18;;;;;;;;;;4994490;28;20029;-78
2022/10/16 10:14:38;;;;;;;10.77;4.22;;;;;;;;;;4999049;28;20386;-77
2022/10/16 10:17:06;;;;;;;8.88;4.03;;;;;;;;;;4994477;28;20394;-77
2022/10/16 10:19:48;;;;;;;11.40;3.75;;;;;;;;;;4994514;28;20445;-78
2022/10/16 10:22:25;;;;;;;10.13;4.00;;;;;;;;;;4994388;28;20473;-77
2022/10/16 10:25:18;;;;;;;9.52;3.60;;;;;;;;;;4977318;28;20041;-77
2022/10/16 10:28:02;;;;;;;9.85;3.80;;;;;;;;;;4984270;28;20042;-78
2022/10/16 10:30:33;;;;;;;10.88;4.10;;;;;;;;;;4994289;28;20486;-78
2022/10/16 10:33:14;;;;;;;8.38;3.78;;;;;;;;;;4994526;28;20058;-78
2022/10/16 10:36:14;;;;;;;11.88;3.88;;;;;;;;;;4993997;28;20534;-77
2022/10/16 10:38:56;;;;;;;9.00;3.70;;;;;;;;;;4977125;28;20065;-76
2022/10/16 10:41:52;;;;;;;8.70;3.60;;;;;;;;;;4994220;28;20475;-76
2022/10/16 10:44:59;;;;;;;10.40;3.75;;;;;;;;;;4994041;28;20030;-76
2022/10/16 10:47:37;;;;;;;8.60;3.85;;;;;;;;;;4993012;28;20042;-77
2022/10/16 10:50:31;;;;;;;10.57;3.75;;;;;;;;;;4995736;28;20105;-76
2022/10/16 10:53:18;;;;;;;9.43;3.40;;;;;;;;;;4993430;28;20041;-76
2022/10/16 10:55:47;;;;;;;9.93;3.88;;;;;;;;;;4993918;28;20037;-75
2022/10/16 10:58:47;;;;;;;6.72;3.47;;;;;;;;;;4994310;28;20042;-75
2022/10/16 11:01:13;;;;;;;;;;;;;;;;;;4996238;28;20302;-74
2022/10/16 11:04:03;;;;;;;9.30;3.90;;;;;;;;;;4993818;28;20016;-75
2022/10/16 11:06:40;;;;;;;8.57;3.35;;;;;;;;;;4994183;28;20030;-74
2022/10/16 11:09:15;;;;;;;10.63;3.80;;;;;;;;;;4993552;28;20486;-74
2022/10/16 11:11:49;;;;;;;11.60;3.45;;;;;;;;;;4976367;28;20034;-75
2022/10/16 11:14:38;;;;;;;8.85;3.17;;;;;;;;;;4993800;28;20026;-74
2022/10/16 11:17:10;;;;;;;10.15;3.60;;;;;;;;;;4993993;28;20023;-74
2022/10/16 11:19:49;;;;;;;8.65;3.30;;;;;;;;;;4993707;28;20037;-75
2022/10/16 11:22:27;;;;;;;5.93;3.15;;;;;;;;;;4993890;28;20023;-74
2022/10/16 11:25:05;;;;;;;9.77;3.47;;;;;;;;;;4993668;28;20037;-74
2022/10/16 11:27:41;;;;;;;7.95;3.50;;;;;;;;;;4993803;28;20438;-74
2022/10/16 11:30:18;;;;;;;8.55;3.40;;;;;;;;;;4993713;28;20052;-74
2022/10/16 11:33:02;;;;;;;8.00;3.45;;;;;;;;;;4993774;28;20375;-75
2022/10/16 11:35:37;;;;;;;10.52;3.20;;;;;;;;;;4975965;28;20061;-74
2022/10/16 11:38:09;;;;;;;7.15;3.55;;;;;;;;;;4993527;28;20034;-74
2022/10/16 11:40:41;;;;;;;9.45;3.53;;;;;;;;;;4993346;28;20031;-75
2022/10/16 11:43:16;;;;;;;10.48;3.70;;;;;;;;;;4993595;28;20022;-76
2022/10/16 11:45:49;;;;;;;10.13;3.50;;;;;;;;;;4993827;28;20077;-75
2022/10/16 11:48:14;;;;;;;6.65;3.08;;;;;;;;;;4993597;28;20018;-75
2022/10/16 11:50:40;;;;;;;12.77;3.50;;;;;;;;;;4993648;28;20035;-76
2022/10/16 11:53:22;;;;;;;11.43;3.47;;;;;;;;;;4993435;28;20133;-75
2022/10/16 11:55:47;;;;;;;7.55;3.38;;;;;;;;;;4975604;28;20450;-75
2022/10/16 11:58:26;;;;;;;8.73;3.35;;;;;;;;;;4993318;28;20054;-74
2022/10/16 12:01:15;;;;;;;6.60;3.03;;;;;;;;;;4993339;28;20500;-74
2022/10/16 12:03:56;;;;;;;12.77;3.37;;;;;;;;;;4976479;28;20066;-76
2022/10/16 12:06:37;;;;;;;7.32;3.28;;;;;;;;;;4993423;28;20057;-75
2022/10/16 12:09:03;;;;;;;6.00;2.80;;;;;;;;;;4993559;28;20034;-74
2022/10/16 12:11:29;;;;;;;8.00;3.15;;;;;;;;;;4993343;28;20109;-74
2022/10/16 12:14:11;;;;;;;8.55;3.17;;;;;;;;;;4993131;28;20101;-75
2022/10/16 12:16:55;;;;;;;7.95;3.25;;;;;;;;;;4975728;28;20038;-76
2022/10/16 12:19:22;;;;;;;11.40;3.72;;;;;;;;;;4993078;28;20041;-76
2022/10/16 12:21:48;;;;;;;7.43;2.97;;;;;;;;;;4995484;28;20048;-76
2022/10/16 12:24:37;;;;;;;7.10;2.83;;;;;;;;;;4996916;28;20049;-76
2022/10/16 12:27:05;;;;;;;5.80;2.63;;;;;;;;;;4997100;28;20463;-77
2022/10/16 12:29:44;;;;;;;6.95;2.90;;;;;;;;;;4996764;28;20532;-77
2022/10/16 12:32:30;;;;;;;6.22;2.60;;;;;;;;;;4996483;28;20553;-76
2022/10/16 12:34:56;;;;;;;9.32;2.70;;;;;;;;;;4996466;28;20046;-75
2022/10/16 12:37:25;;;;;;;10.05;2.60;;;;;;;;;;4979052;28;20041;-75
2022/10/16 12:39:53;;;;;;;6.85;2.47;;;;;;;;;;4996482;28;20029;-76
2022/10/16 12:42:38;;;;;;;5.63;2.30;;;;;;;;;;4996608;28;20073;-77
2022/10/16 12:45:23;;;;;;;6.50;2.20;;;;;;;;;;4995824;28;20038;-76
2022/10/16 12:47:53;;;;;;;7.07;2.38;;;;;;;;;;4996311;28;20507;-76
2022/10/16 12:50:38;;;;;;;5.75;2.22;;;;;;;;;;4996216;28;20042;-76
2022/10/16 12:53:17;;;;;;;5.70;2.42;;;;;;;;;;4996726;28;20080;-76
2022/10/16 12:56:07;;;;;;;8.37;2.17;;;;;;;;;;4978636;28;20030;-75
2022/10/16 12:58:51;;;;;;;5.88;2.30;;;;;;;;;;4979201;28;20305;-76
2022/10/16 13:01:34;;;;;;;8.07;2.00;;;;;;;;;;4996158;28;20121;-76
2022/10/16 13:04:25;;;;;;;7.43;2.10;;;;;;;;;;4995914;28;20022;-76
2022/10/16 13:07:18;;;;;;;6.53;1.80;;;;;;;;;;4978368;28;20042;-75
2022/10/16 13:10:05;;;;;;;9.57;2.17;;;;;;;;;;4995907;28;20038;-75
2022/10/16 13:12:52;;;;;;;11.55;2.30;;;;;;;;;;4995984;28;20041;-75
2022/10/16 13:15:47;;;;;;;6.60;2.10;;;;;;;;;;4978230;28;20046;-75
2022/10/16 13:18:25;;;;;;;7.57;1.92;;;;;;;;;;4995706;28;20085;-76
2022/10/16 13:21:21;;;;;;;8.65;2.28;;;;;;;;;;4995593;28;20510;-75
2022/10/16 13:24:03;;;;;;;7.18;1.90;;;;;;;;;;4995644;28;20022;-77
2022/10/16 13:26:44;;;;;;;7.82;2.25;;;;;;;;;;4995563;28;20030;-75
2022/10/16 13:29:10;;;;;;;5.45;1.70;;;;;;;;;;4978159;28;20037;-75
2022/10/16 13:31:38;;;;;;;6.47;1.98;;;;;;;;;;4995549;28;20030;-76
2022/10/16 13:34:06;;;;;;;6.55;1.98;;;;;;;;;;4994590;28;20417;-76
2022/10/16 13:36:46;;;;;;;5.97;2.10;;;;;;;;;;4995454;28;20022;-77
2022/10/16 13:39:13;;;;;;;;;;;;;;;;;;4995759;28;20034;-77
2022/10/16 13:41:39;;;;;;;9.02;2.13;;;;;;;;;;4977986;28;19914;-76
2022/10/16 13:44:12;;;;;;;7.30;2.00;;;;;;;;;;4977618;28;20038;-76
2022/10/16 13:46:38;;;;;;;7.05;2.20;;;;;;;;;;4995176;28;20054;-76
2022/10/16 13:49:05;;;;;;;9.32;2.10;;;;;;;;;;4995151;28;20398;-76
2022/10/16 13:51:32;;;;;;;7.25;2.17;;;;;;;;;;4995147;28;20038;-77
2022/10/16 13:53:58;;;;;;;10.50;2.22;;;;;;;;;;4977443;28;20030;-77
2022/10/16 13:56:29;;;;;;;8.18;2.05;;;;;;;;;;4977351;28;20363;-77
2022/10/16 13:59:02;;;;;;;6.13;2.17;;;;;;;;;;4995525;28;20062;-77
2022/10/16 14:01:34;;;;;;;6.30;2.15;;;;;;;;;;4994799;28;20465;-77
2022/10/16 14:04:05;;;;;;;8.00;1.80;;;;;;;;;;4994921;28;20069;-77
2022/10/16 14:06:31;;;;;;;7.50;1.90;;;;;;;;;;4995179;28;20514;-77
2022/10/16 14:09:30;;;;;;;6.30;1.90;;;;;;;;;;4994946;28;20398;-76
2022/10/16 14:12:02;;;;;;;7.00;2.00;;;;;;;;;;4942328;28;20035;-75
2022/10/16 14:14:35;;;;;;;4.70;1.88;;;;;;;;;;4994480;28;20035;-75
2022/10/16 14:17:02;;;;;;;7.50;2.00;;;;;;;;;;4994540;28;20488;-77
2022/10/16 14:19:30;;;;;;;6.35;2.30;;;;;;;;;;4994575;28;20069;-77
2022/10/16 14:21:56;;;;;;;7.53;2.13;;;;;;;;;;4995086;28;20126;-77
2022/10/16 14:24:33;;;;;;;6.25;1.77;;;;;;;;;;4994524;28;20113;-76
2022/10/16 14:27:00;;;;;;;6.35;1.80;;;;;;;;;;4994686;28;20109;-77
2022/10/16 14:29:27;;;;;;;8.52;2.10;;;;;;;;;;4994579;28;20030;-77
2022/10/16 14:32:04;;;;;;;5.82;1.98;;;;;;;;;;4997645;28;20210;-76
2022/10/16 14:34:35;;;;;;;5.85;1.90;;;;;;;;;;4976702;28;20054;-76
2022/10/16 14:37:18;;;;;;;6.50;1.90;;;;;;;;;;4994522;28;20026;-76
2022/10/16 14:39:49;;;;;;;7.65;2.15;;;;;;;;;;4994309;28;20394;-77
2022/10/16 14:42:18;;;;;;;8.70;2.22;;;;;;;;;;4994155;28;20520;-77
2022/10/16 14:44:45;;;;;;;6.78;2.00;;;;;;;;;;4994348;28;20022;-76
2022/10/16 14:47:15;;;;;;;8.85;2.00;;;;;;;;;;4976630;28;20541;-76
2022/10/16 14:49:41;;;;;;;8.63;2.00;;;;;;;;;;4994041;28;20026;-77
2022/10/16 14:52:12;;;;;;;6.38;1.85;;;;;;;;;;4994135;28;20038;-76
2022/10/16 14:54:37;;;;;;;8.27;2.00;;;;;;;;;;4993931;28;20027;-76
2022/10/16 14:57:03;;;;;;;6.72;2.10;;;;;;;;;;4994208;28;20041;-77
2022/10/16 14:59:41;;;;;;;8.00;2.00;;;;;;;;;;4994381;28;20022;-77